Weather observations for the past three days for
Graham, Graham Municipal Airport
Metric (Imperial)
Date Time (cdt) Wind (kph) Vis. (km) Weather Sky Cond. Temperature (ºC) Relative Humidity Wind Chill (°C) Heat Index (°C) Pressure Precipitation (cm)
Air Dwpt 6 hour altimeter (cm) sea level (mb) 1 hr 3 hr 6 hr
Max. Min.
07 13:35 Calm 16.09 A Few Clouds FEW370 20.5 8.2 45% 76.3 0.0
07 13:15 NE 17 16.09 Fair CLR 19.8 7.9 46% 76.33 0.0
07 12:55 NE 7 16.09 Fair CLR 19.4 7.8 19.4 6.9 47% 76.38 0.0
07 12:35 N 9 16.09 A Few Clouds FEW320 18.8 7.2 47% 76.4 0.0
07 12:15 Vrbl 6 16.09 Partly Cloudy FEW320 SCT340 18.6 7 47% 76.43 0.0
07 11:55 NE 9 16.09 A Few Clouds FEW350 18.8 7.6 48% 76.45 0.0
07 11:35 Vrbl 7 16.09 Fair CLR 18.1 7.8 51% 76.45 0.0
07 11:15 Vrbl 7 16.09 A Few Clouds FEW150 17 7.6 54% 76.48 0.0
07 10:55 Vrbl 6 16.09 Partly Cloudy SCT150 16.7 8.3 58% 76.48 0.0
07 10:35 Calm 16.09 A Few Clouds FEW320 16.7 9 61% 76.48 0.0
07 10:15 NE 9 16.09 A Few Clouds FEW150 15.9 9.4 66% 76.5 0.0
07 09:55 Calm 16.09 A Few Clouds FEW150 15 9.6 70% 76.53 0.0
07 09:35 Calm 16.09 A Few Clouds FEW310 14.1 10.2 78% 76.53 0.0
07 09:15 Vrbl 6 16.09 Fair CLR 13.3 10.7 84% 76.56 0.0
07 08:55 Vrbl 7 16.09 Fair CLR 11.6 10 90% 76.56 0.0
07 08:35 Calm 16.09 Fair CLR 10.7 9.3 91% 76.56 0.0
07 08:15 Calm 12.87 Fair CLR 9.9 9 94% 76.56 0.0
07 07:55 Calm 4.83 Fog/Mist CLR 8.8 8.3 97% 76.53 0.0
07 07:35 Calm 11.27 Fair CLR 8.2 7.8 97% 76.53 0.0
07 07:15 Calm 11.27 Fair CLR 7.4 7 97% 76.53 0.0
07 06:55 Calm 8.05 Fog/Mist CLR 7.4 6.8 11.2 7.4 96% 76.5 0.0
07 06:35 Calm 8.05 Fog/Mist CLR 7.9 7.3 96% 76.48 0.0
07 06:15 Calm 4.83 Fog/Mist CLR 7.9 7.2 95% 76.48 0.0
07 05:55 N 6 16.09 Fair CLR 8.4 7.7 95% 76.5 0.0
07 05:35 N 7 16.09 Fair CLR 8.3 7.7 96% 7 76.53 0.0
07 05:15 N 7 16.09 Fair CLR 8.4 7.6 95% 8 76.5 0.0
07 04:55 NW 6 16.09 Fair CLR 8.3 7.4 94% 76.48 0.0
07 04:35 Calm 16.09 Fair CLR 8.4 7.6 95% 76.45 0.0
07 04:15 Calm 16.09 Fair CLR 9.1 8 93% 76.43 0.0
07 03:55 N 6 16.09 Fair CLR 9.3 8 92% 76.4 0.0
07 03:35 N 6 16.09 Fair CLR 9.6 8.2 91% 76.4 0.0
07 03:15 N 6 16.09 Fair CLR 9.6 8.3 92% 76.4 0.0
07 02:55 N 6 16.09 Fair CLR 10.2 8.6 90% 76.35 0.0
07 02:35 N 7 16.09 Fair CLR 10.3 8.5 89% 76.38 0.0
07 02:15 Calm 16.09 Fair CLR 10.5 8.6 88% 76.35 0.0
07 01:55 NE 6 16.09 Fair CLR 10.9 8.9 88% 76.38 0.0
07 01:35 NE 6 16.09 Fair CLR 11 8.9 87% 76.35 0.0
07 01:15 NE 7 16.09 Fair CLR 11.2 9.1 87% 76.33 0.0
07 00:55 NE 7 16.09 Fair CLR 11.2 8.9 17.4 11.1 86% 76.3 0.0
07 00:35 NE 7 16.09 Fair CLR 11.1 8.8 86% 76.3 0.0
07 00:15 NE 7 16.09 Fair CLR 11.2 9.2 88% 76.3 0.0
06 23:55 NE 7 16.09 Fair CLR 11.8 9.5 86% 76.28 0.0
06 23:35 NE 6 16.09 Fair CLR 11.9 9.6 86% 76.3 0.0
06 23:15 E 7 16.09 Fair CLR 12.2 9.6 84% 76.28 0.0
06 22:55 E 7 16.09 Fair CLR 12.1 9.5 84% 76.28 0.0
06 22:35 E 6 16.09 Fair CLR 12.2 9.6 84% 76.25 0.0
06 22:15 NE 6 14.48 Fair CLR 11.7 9.6 87% 76.23 0.0
06 21:55 E 6 14.48 Light Rain CLR 12.6 9.7 83% 76.23 0.0
06 21:35 NE 6 14.48 Fair CLR 12.9 9.9 82% 76.2 0.0
06 21:15 E 7 16.09 Fair CLR 13.3 9.8 80% 76.17 0.0
06 20:55 E 6 14.48 Fair CLR 14.2 9.8 75% 76.17 0.0
06 20:35 E 6 12.87 Fair CLR 14.9 9.8 72% 76.15 0.0
06 20:15 NE 7 14.48 Fair CLR 15.8 9.6 67% 76.12 0.0
06 19:55 NE 11 16.09 Fair CLR 16.6 9.5 63% 76.12 0.0
06 19:35 NE 9 16.09 Fair CLR 16.7 9.7 64% 76.12 0.0
06 19:15 NE 9 16.09 Fair CLR 16.9 9.4 62% 76.1 0.0
06 18:55 Vrbl 7 16.09 Fair CLR 17.5 9.5 18.7 16.1 60% 76.1 0.0
06 18:35 NE 9 16.09 Fair CLR 16.7 9.1 61% 76.07 0.0
06 18:15 N 19 16.09 A Few Clouds FEW310 17.1 9.3 60% 76.05 0.0
06 17:55 NE 13 16.09 A Few Clouds FEW290 16.8 9.4 62% 76.05 0.0
06 17:35 N 19 16.09 A Few Clouds FEW290 16.7 9.1 61% 76.05 0.0
06 17:15 N 20 16.09 Fair CLR 16.8 9 60% 76.05 0.0
06 16:55 N 19 16.09 Fair CLR 17.6 9.4 59% 76.02 0.0
06 16:35 N 19 16.09 A Few Clouds FEW290 18.1 9.4 57% 76.02 0.0
06 16:15 N 15 16.09 Fair CLR 18 9.5 58% 76.02 0.0
06 15:55 N 17 16.09 A Few Clouds FEW280 18.6 9.8 57% 76.02 0.0
06 15:35 N 19 16.09 A Few Clouds FEW360 18.1 9.4 57% 76.05 0.0
06 15:15 N 17 16.09 A Few Clouds FEW330 18.3 9.7 57% 76.05 0.0
06 14:55 N 11 16.09 Partly Cloudy FEW270 SCT360 SCT380 18.2 9.8 58% 76.07 0.0
06 14:35 N 15 16.09 A Few Clouds FEW260 17.8 9.3 58% 76.05 0.0
06 14:15 N 13 16.09 A Few Clouds FEW280 17 8.9 59% 76.07 0.0
06 13:55 NW 13 16.09 Partly Cloudy FEW250 SCT280 SCT360 16.9 9.1 60% 76.1 0.0
06 13:35 Vrbl 9 16.09 A Few Clouds FEW280 17.2 9.2 60% 76.1 0.0
06 13:15 Vrbl 11 16.09 Partly Cloudy FEW280 SCT350 16.6 8.8 60% 76.1 0.0
06 12:55 N 15 16.09 A Few Clouds FEW280 16.4 8.6 16.4 10.4 60% 76.1 0.0
06 12:35 N 15 16.09 A Few Clouds FEW150 15.4 8.3 63% 76.15 0.0
06 12:15 N 13 16.09 Partly Cloudy FEW140 SCT240 SCT360 SCT380 14.7 7.7 63% 76.15 0.0
06 11:55 N 17 16.09 Partly Cloudy SCT035 SCT150 SCT240 14.4 7.5 63% 76.15 0.0
06 11:35 N 19 16.09 Mostly Cloudy SCT034 BKN150 BKN220 14 7.2 64% 76.15 0.0
06 11:15 N 17 16.09 Partly Cloudy FEW130 SCT160 SCT370 14.1 7.2 63% 76.12 0.0
06 10:55 NE 22 G 35 16.09 A Few Clouds FEW140 13.6 7 65% 76.07 0.0
06 10:35 N 26 G 35 16.09 Partly Cloudy SCT027 13.6 7 65% 76.05 0.0
06 10:15 NE 19 G 28 16.09 Overcast OVC026 12.5 6.6 68% 76.12 0.0
06 09:55 NE 11 16.09 Overcast OVC022 11.2 6.5 73% 76.2 0.0
06 09:35 NE 11 16.09 Overcast BKN021 OVC029 11.1 6.5 74% 76.23 0.0
06 09:15 N 13 16.09 Overcast FEW022 OVC028 11.2 6.7 74% 76.15 0.0
06 08:55 N 15 1.61 Overcast with Haze BKN019 OVC028 10.7 6.6 76% 76.1 0.0
06 08:15 N 15 1.21 Overcast with Haze OVC016 10.5 7 79% 76.12 0.0
06 07:55 N 13 1.21 Overcast with Haze OVC015 10.5 7.6 82% 76.05 0.0
06 07:35 N 17 1.61 Overcast with Haze OVC013 10.4 7.7 84% 76.02 0.0
06 07:15 N 17 1.61 Overcast with Haze OVC013 10.4 7.8 84% 76 0.0
06 06:55 N 19 1.61 Overcast with Haze OVC012 10.4 7.9 12 10.4 85% 76 0.0
06 06:35 N 20 3.22 Overcast with Haze OVC014 10.5 7.9 84% 76 0.0
06 06:15 N 15 2.82 Overcast with Haze OVC015 10.9 7.9 82% 76.02 0.0
06 05:55 N 22 3.22 Overcast with Haze OVC015 10.8 7.9 82% 75.95 0.0
06 05:35 N 15 2.82 Overcast with Haze OVC015 10.9 7.9 82% 75.92 0.0
06 05:15 N 17 2.82 Overcast with Haze OVC016 11 7.7 80% 75.92 0.0
06 04:55 N 17 2.82 Overcast with Haze OVC018 11 7.4 79% 75.92 0.0
06 04:35 N 20 2.82 Overcast with Haze OVC017 11.1 7.5 79% 75.9 0.0
06 04:15 N 17 2.41 Overcast with Haze OVC016 11.2 7.7 79% 75.87 0.0
06 03:55 N 17 2.41 Overcast with Haze OVC017 11.3 8.1 81% 75.84 0.0
06 03:35 N 13 2.01 Mostly Cloudy with Haze BKN018 11.2 8.5 84% 75.84 0.0
06 03:15 N 9 2.01 Fair with Haze CLR 10.8 8.6 86% 75.84 0.0
06 02:55 N 11 2.41 Mostly Cloudy with Haze BKN031 11.2 8.4 83% 75.82 0.0
06 02:35 N 11 2.41 Overcast with Haze FEW019 OVC032 11.4 8.4 82% 75.84 0.0
06 02:15 N 11 2.41 Mostly Cloudy with Haze BKN020 11.6 8.7 83% 75.84 0.0
06 01:55 N 19 3.22 Mostly Cloudy with Haze BKN018 BKN035 11.9 8.9 82% 75.84 0.0
06 00:55 N 9 2.41 Fair with Haze CLR 11.8 9.1 21.6 11.8 84% 75.77 0.0
06 00:35 NE 7 2.82 Fair with Haze CLR 12 9 82% 75.74 0.0
06 00:15 NE 9 2.82 Fair with Haze CLR 12.1 8.9 81% 75.74 0.0
05 23:55 NE 9 3.22 Fair with Haze CLR 12.5 9.1 80% 75.77 0.0
05 23:35 NE 13 3.22 Light Rain CLR 12.7 9.3 80% 75.79 0.0
05 23:15 N 11 3.22 Fair with Haze CLR 12.9 9.6 81% 75.77 0.0
05 22:55 N 13 4.02 Fair with Haze CLR 13.1 9.6 80% 75.79 0.0
05 22:35 N 15 4.83 Fair with Haze CLR 13.4 9.8 79% 75.77 0.0
05 22:15 NE 13 4.02 Fair with Haze CLR 13.6 9.9 79% 75.74 0.0
05 21:55 N 13 4.83 Fair with Haze CLR 14.2 10.6 79% 75.72 0.0
05 21:35 N 20 6.44 Fair with Haze CLR 14.6 10.8 78% 75.69 0.0
05 21:15 N 22 8.05 A Few Clouds with Haze FEW260 15.1 10.8 76% 75.64 0.0
05 20:55 N 20 9.66 A Few Clouds with Haze FEW240 16.1 11.3 73% 75.62 0.0
05 20:35 N 26 G 35 9.66 Fair with Haze CLR 16.8 11.6 72% 75.57 0.0
05 20:15 N 28 14.48 Fair CLR 18.3 12.2 68% 75.51 0.0
05 19:55 N 17 16.09 A Few Clouds FEW210 20 12.3 61% 75.49 0.0
05 19:35 N 15 16.09 Fair CLR 20.9 12.2 58% 75.49 0.0
05 19:15 N 19 16.09 Fair CLR 21.3 11.7 54% 75.46 0.0
05 18:55 N 20 16.09 A Few Clouds FEW230 21.4 11.5 30.4 21.4 53% 75.46 0.0
05 18:35 N 26 16.09 Mostly Cloudy BKN230 21.7 11.8 53% 75.46 0.0
05 18:15 N 28 16.09 Mostly Cloudy BKN220 22.5 12.1 52% 75.46 0.0
05 17:55 N 24 G 33 16.09 Mostly Cloudy SCT200 BKN230 23.5 12.7 51% 75.41 0.0
05 17:35 N 22 16.09 Overcast BKN200 OVC230 23.2 12.9 52% 75.41 0.0
05 17:15 N 22 16.09 Mostly Cloudy SCT210 BKN230 23.8 13.3 52% 75.41 0.0
05 16:55 N 30 G 39 16.09 Mostly Cloudy BKN200 24.7 13.6 50% 26 75.41 0.0
05 16:35 N 20 16.09 Mostly Cloudy FEW170 BKN210 25.2 14.3 51% 26 75.41 0.0
05 16:15 N 20 16.09 Mostly Cloudy SCT170 BKN370 25.7 15 52% 26 75.39 0.0
05 15:55 N 22 16.09 Partly Cloudy SCT160 25.5 14.8 52% 26 75.39 0.0
05 15:35 N 26 16.09 A Few Clouds FEW160 26.5 15.3 50% 27 75.41 0.0
05 15:15 N 24 16.09 Fair CLR 26.8 15.9 51% 27 75.41 0.0
05 14:55 N 26 G 31 16.09 Partly Cloudy FEW220 SCT370 27.5 16.2 50% 28 75.41 0.0
05 14:35 NW 20 16.09 A Few Clouds FEW220 28.8 14.6 42% 29 75.39 0.0
05 14:15 NW 22 16.09 Partly Cloudy FEW150 SCT320 SCT360 28.3 14.5 43% 28 75.41 0.0
05 13:55 NW 22 16.09 Mostly Cloudy FEW150 SCT240 SCT270 BKN320 28 10.9 34% 27 75.41 0.0
05 13:35 NW 30 16.09 Mostly Cloudy FEW250 SCT280 SCT300 BKN330 28.5 9.2 30% 27 75.39 0.0
05 13:15 W 20 16.09 Mostly Cloudy SCT150 BKN280 BKN330 30.1 14.5 39% 30 75.39 0.0
05 12:55 W 20 16.09 Mostly Cloudy BKN150 29.2 14.1 29.3 21.1 40% 29 75.39 0.0
05 12:35 W 17 16.09 Mostly Cloudy BKN160 29.2 16.3 46% 29 75.36 0.0
05 12:15 SW 11 16.09 Mostly Cloudy BKN150 28.2 18.5 56% 29 75.36 0.0
05 11:55 SW 13 16.09 Mostly Cloudy BKN150 BKN220 27.3 18.8 60% 28 75.36 0.0
05 11:35 SW 17 16.09 Mostly Cloudy BKN150 BKN220 26.9 18.9 62% 28 75.36 0.0
05 11:15 SW 15 16.09 Mostly Cloudy SCT160 SCT190 BKN220 26.4 18.9 63% 28 75.34 0.0
05 10:55 SW 17 16.09 Mostly Cloudy FEW150 SCT180 BKN210 25.9 18.6 64% 27 75.34 0.0
05 10:35 SW 9 16.09 Overcast FEW190 OVC210 25.6 18.9 67% 27 75.31 0.0
05 10:15 SW 11 16.09 Mostly Cloudy BKN210 25.5 18.5 65% 27 75.31 0.0
05 09:55 SW 15 16.09 Fair CLR 24.6 18.3 68% 26 75.31 0.0
05 09:35 SW 19 16.09 Fair CLR 24.2 18.1 69% 25 75.31 0.0
05 09:15 SW 17 G 28 16.09 A Few Clouds FEW210 23.8 18.3 71% 75.29 0.0
05 08:55 S 13 16.09 A Few Clouds FEW220 22.7 18.2 76% 75.29 0.0
05 08:35 Vrbl 7 16.09 Partly Cloudy SCT220 22 18.2 79% 75.29 0.0
05 08:15 Vrbl 11 16.09 Mostly Cloudy BKN220 21.8 17.9 79% 75.29 0.0
05 07:55 Vrbl 7 16.09 Partly Cloudy SCT230 21.2 17.6 80% 75.23 0.0
05 07:35 S 11 14.48 Mostly Cloudy BKN230 21.1 17.5 80% 75.21 0.0
05 07:15 S 9 16.09 Mostly Cloudy BKN230 21.2 17.4 79% 75.21 0.0
05 06:55 S 13 16.09 Mostly Cloudy BKN240 21.2 17.4 23.7 21.2 79% 75.21 0.0
05 06:35 S 13 16.09 Mostly Cloudy BKN240 21.2 17.4 79% 75.21 0.0
05 06:15 Vrbl 11 16.09 Overcast OVC240 21.4 17.4 78% 75.18 0.0
05 05:55 S 17 G 30 16.09 Mostly Cloudy BKN240 21.5 17.5 78% 75.18 0.0
05 05:35 S 15 16.09 Partly Cloudy SCT240 21.5 17.5 78% 75.18 0.0
05 05:15 S 19 16.09 Fair CLR 21.5 17.5 78% 75.18 0.0
05 04:55 S 15 16.09 Fair CLR 21.5 17.5 78% 75.18 0.0
05 04:35 S 19 16.09 Fair CLR 21.7 17.5 77% 75.18 0.0
05 04:15 S 19 16.09 Fair CLR 21.7 17.5 77% 75.18 0.0
05 03:55 S 17 16.09 Fair CLR 22 17.5 76% 75.18 0.0
05 03:35 S 19 16.09 Fair CLR 22.2 17.6 75% 75.21 0.0
05 03:15 S 19 G 31 16.09 Fair CLR 22.6 17.5 73% 75.21 0.0
05 02:55 S 17 G 28 16.09 A Few Clouds FEW170 22.9 17.5 72% 75.23 0.0
05 02:35 S 19 16.09 A Few Clouds FEW170 22.8 17.5 72% 75.23 0.0
05 02:15 S 17 16.09 Fair CLR 23.1 17.6 71% 75.26 0.0
05 01:55 S 15 G 28 16.09 Fair CLR 23.4 17.5 70% 75.29 0.0
05 01:35 S 15 16.09 Fair CLR 23.6 17.5 69% 75.31 0.0
05 01:15 S 17 G 28 16.09 Fair CLR 23.7 17.5 68% 75.31 0.0
05 00:55 S 17 16.09 Fair CLR 24 17.5 27.2 23.9 67% 25 75.31 0.0
05 00:35 S 17 G 30 16.09 Fair CLR 24 17.5 67% 25 75.31 0.0
05 00:15 S 17 G 28 16.09 Fair CLR 24.1 17.5 67% 25 75.31 0.0
04 23:55 S 17 16.09 Fair CLR 24.4 17.6 66% 25 75.31 0.0
04 23:35 S 17 G 28 16.09 A Few Clouds FEW220 24.5 17.6 66% 26 75.31 0.0
04 23:15 Vrbl 11 16.09 A Few Clouds FEW220 24.5 17.7 66% 26 75.31 0.0
04 22:55 S 15 16.09 Fair CLR 24.7 17.7 65% 26 75.29 0.0
04 22:35 S 13 16.09 Fair CLR 24.9 17.7 64% 26 75.29 0.0
04 22:15 Vrbl 11 16.09 Fair CLR 24.9 17.7 64% 26 75.31 0.0
04 21:35 S 15 16.09 Partly Cloudy SCT220 SCT240 25 17.7 64% 26 75.26 0.0
04 21:15 SE 15 16.09 Mostly Cloudy BKN220 BKN260 24.8 17.8 65% 26 75.26 0.0
04 20:55 SE 15 16.09 A Few Clouds FEW260 25.1 17.8 64% 26 75.26 0.0
04 20:35 SE 13 16.09 Fair CLR 25.1 17.9 64% 26 75.26 0.0
04 20:15 S 11 14.48 Fair CLR 25.4 18 64% 26 75.26 0.0
04 19:55 Vrbl 11 16.09 Fair CLR 25.8 18 62% 27 75.29 0.0
04 19:35 S 15 16.09 Fair CLR 26.2 17.8 60% 27 75.29 0.0
04 19:15 S 13 14.48 Fair CLR 26.9 17.8 58% 28 75.31 0.0
04 18:55 S 17 G 30 16.09 Fair CLR 27.4 17.3 29.5 26.3 54% 28 75.31 0.0
04 18:35 S 17 G 30 16.09 Fair CLR 27.8 17.5 54% 29 75.34 0.0
04 18:15 S 19 G 28 16.09 Fair CLR 28.4 17.3 51% 29 75.34 0.0
04 17:55 S 17 G 31 16.09 Fair CLR 28.6 17.5 51% 29 75.34 0.0
04 17:35 S 19 G 30 16.09 Fair CLR 28.6 17.4 51% 29 75.34 0.0
04 17:15 S 13 G 26 16.09 Fair CLR 28.7 16.8 49% 29 75.34 0.0
04 16:55 S 19 G 30 16.09 A Few Clouds FEW300 29 17 48% 29 75.36 0.0
04 16:35 S 17 G 26 16.09 Partly Cloudy FEW310 SCT360 28.8 17.3 50% 29 75.36 0.0
04 16:15 S 17 G 31 16.09 A Few Clouds FEW310 28.6 17 49% 29 75.39 0.0
04 15:55 S 15 16.09 Fair CLR 29 16.5 47% 29 75.44 0.0
04 15:35 S 22 G 35 16.09 A Few Clouds FEW360 29.4 16.4 45% 30 75.44 0.0
04 15:15 S 20 G 35 16.09 Fair CLR 29.5 16.6 46% 30 75.46 0.0
04 14:55 S 22 G 30 16.09 A Few Clouds FEW370 29.1 16.4 46% 29 75.51 0.0
04 14:35 S 19 G 33 16.09 A Few Clouds FEW360 28.7 16 46% 29 75.54 0.0
04 14:15 S 17 G 28 16.09 A Few Clouds FEW360 28.1 16.2 48% 28 75.57 0.0
04 13:55 S 17 G 30 16.09 A Few Clouds FEW360 27.5 16.1 50% 28 75.59 0.0
Date Time (cdt) Wind (kph) Vis. (km) Weather Sky Cond. Air Dwpt Max. Min. Relative Humidity Wind Chill (°C) Heat Index (°C) altimeter (cm) sea level (mb) 1 hr 3 hr 6 hr
6 hour
Temperature (ºC) Pressure Precipitation (cm)